createdAt,value
2022-08-01T00:02:58.825Z,26.25
2022-08-01T00:08:03.697Z,22.55
2022-08-01T00:13:07.014Z,22.92
2022-08-01T00:18:10.314Z,19.27
2022-08-01T00:23:15.006Z,20.40
2022-08-01T00:28:18.337Z,22.65
2022-08-01T00:33:21.674Z,20.52
2022-08-01T00:38:26.416Z,20.27
2022-08-01T00:43:30.454Z,19.50
2022-08-01T00:48:33.981Z,18.63
2022-08-01T00:53:51.827Z,18.42
2022-08-01T00:58:57.522Z,19.58
2022-08-01T01:04:00.901Z,21.77
2022-08-01T01:09:26.444Z,20.48
2022-08-01T01:14:35.675Z,20.20
2022-08-01T01:19:47.207Z,20.38
2022-08-01T01:25:04.655Z,18.98
2022-08-01T01:30:09.928Z,16.33
2022-08-01T01:35:19.601Z,16.05
2022-08-01T01:40:26.049Z,14.77
2022-08-01T01:45:33.096Z,12.95
2022-08-01T01:50:38.010Z,14.27
2022-08-01T01:55:49.588Z,14.80
2022-08-01T02:00:57.447Z,12.82
2022-08-01T02:06:04.062Z,11.88
2022-08-01T02:11:20.615Z,12.60
2022-08-01T02:16:29.517Z,11.05
2022-08-01T02:21:43.656Z,12.90
2022-08-01T02:26:51.599Z,12.25
2022-08-01T02:31:57.458Z,10.80
2022-08-01T02:37:02.468Z,11.27
2022-08-01T02:42:09.584Z,11.18
2022-08-01T02:47:15.142Z,11.35
2022-08-01T02:52:21.294Z,11.93
2022-08-01T02:57:33.582Z,10.60
2022-08-01T03:02:56.006Z,12.40
2022-08-01T03:08:02.721Z,12.55
2022-08-01T03:13:09.726Z,13.38
2022-08-01T03:18:16.612Z,16.35
2022-08-01T03:23:22.867Z,12.98
2022-08-01T03:28:43.972Z,11.73
2022-08-01T03:33:48.954Z,12.00
2022-08-01T03:38:53.754Z,12.43
2022-08-01T03:44:03.310Z,14.15
2022-08-01T03:49:16.600Z,13.85
2022-08-01T03:54:23.684Z,14.32
2022-08-01T03:59:28.323Z,14.30
2022-08-01T04:04:33.256Z,13.95
2022-08-01T04:09:36.639Z,14.20
2022-08-01T04:14:39.907Z,14.27
2022-08-01T04:19:45.852Z,14.65
2022-08-01T04:24:56.905Z,12.90
2022-08-01T04:30:02.654Z,14.07
2022-08-01T04:35:23.006Z,14.75
2022-08-01T04:40:37.210Z,17.00
2022-08-01T04:45:41.223Z,16.73
2022-08-01T04:50:45.935Z,15.40
2022-08-01T04:55:49.530Z,16.25
2022-08-01T05:00:52.948Z,20.52
2022-08-01T05:05:57.665Z,23.00
2022-08-01T05:11:02.334Z,19.33
2022-08-01T05:16:08.292Z,20.65
2022-08-01T05:21:13.013Z,20.65
2022-08-01T05:26:16.351Z,22.77
2022-08-01T05:31:19.785Z,19.08
2022-08-01T05:36:24.501Z,13.45
2022-08-01T05:41:27.828Z,14.10
2022-08-01T05:46:31.930Z,11.82
2022-08-01T05:51:36.632Z,10.85
2022-08-01T05:56:39.944Z,12.27
2022-08-01T06:01:44.800Z,12.73
2022-08-01T06:06:50.704Z,11.38
2022-08-01T06:11:54.106Z,9.10
2022-08-01T06:16:57.580Z,7.97
2022-08-01T06:22:02.262Z,5.43
2022-08-01T06:27:05.936Z,5.07
2022-08-01T06:32:26.964Z,4.95
2022-08-01T06:37:33.036Z,4.78
2022-08-01T06:42:37.336Z,5.25
2022-08-01T06:47:41.363Z,4.20
2022-08-01T06:52:46.142Z,3.83
2022-08-01T06:57:50.942Z,3.45
2022-08-01T07:02:57.370Z,4.13
2022-08-01T07:08:02.005Z,4.25
2022-08-01T07:13:05.355Z,3.47
2022-08-01T07:18:09.208Z,3.22
2022-08-01T07:23:13.933Z,2.90
2022-08-01T07:28:17.841Z,2.88
2022-08-01T07:33:21.293Z,2.88
2022-08-01T07:38:26.321Z,2.47
2022-08-01T07:43:30.492Z,2.50
2022-08-01T07:48:34.097Z,2.42
2022-08-01T07:53:39.070Z,2.38
2022-08-01T07:58:42.508Z,2.80
2022-08-01T08:03:45.844Z,2.33
2022-08-01T08:08:50.685Z,2.65
2022-08-01T08:13:53.995Z,2.35
2022-08-01T08:18:57.404Z,2.75
2022-08-01T08:24:19.849Z,2.45
2022-08-01T08:29:30.892Z,2.75
2022-08-01T08:34:35.222Z,3.13
2022-08-01T08:39:41.341Z,2.53
2022-08-01T08:44:45.760Z,2.30
2022-08-01T08:49:50.151Z,2.78
2022-08-01T08:54:55.852Z,2.35
2022-08-01T08:59:59.504Z,2.20
2022-08-01T09:05:04.137Z,2.63
2022-08-01T09:10:10.247Z,2.50
2022-08-01T09:15:14.531Z,2.40
2022-08-01T09:20:26.010Z,2.60
2022-08-01T09:25:43.721Z,2.72
2022-08-01T09:30:51.137Z,2.83
2022-08-01T09:35:57.566Z,3.28
2022-08-01T09:41:02.981Z,3.08
2022-08-01T09:46:12.757Z,3.90
2022-08-01T09:51:58.573Z,3.70
2022-08-01T09:56:55.173Z,3.78
2022-08-01T10:01:58.558Z,3.30
2022-08-01T10:07:07.852Z,3.53
2022-08-01T10:12:16.158Z,3.53
2022-08-01T10:17:22.722Z,4.13
2022-08-01T10:22:27.901Z,3.67
2022-08-01T10:27:39.417Z,3.75
2022-08-01T10:32:44.317Z,3.72
2022-08-01T10:37:59.083Z,3.67
2022-08-01T10:43:04.887Z,4.20
2022-08-01T10:48:14.441Z,4.28
2022-08-01T10:58:42.752Z,4.97
2022-08-01T11:04:01.337Z,4.30
2022-08-01T11:09:07.711Z,3.95
2022-08-01T11:14:13.549Z,5.38
2022-08-01T11:19:18.018Z,7.47
2022-08-01T11:25:02.312Z,4.53
2022-08-01T11:30:26.658Z,4.93
2022-08-01T11:35:30.668Z,5.03
2022-08-01T11:40:34.106Z,5.07
2022-08-01T11:45:50.639Z,4.30
2022-08-01T11:50:55.403Z,5.00
2022-08-01T11:56:00.284Z,4.60
2022-08-01T12:01:05.028Z,4.45
2022-08-01T12:06:11.058Z,4.97
2022-08-01T12:11:14.445Z,4.63
2022-08-01T12:16:19.780Z,4.10
2022-08-01T12:21:27.244Z,3.22
2022-08-01T12:26:42.960Z,3.65
2022-08-01T12:31:47.641Z,3.80
2022-08-01T12:36:51.297Z,3.35
2022-08-01T12:41:55.464Z,3.72
2022-08-01T12:47:02.825Z,4.05
2022-08-01T12:52:12.877Z,3.30
2022-08-01T12:57:24.484Z,3.38
2022-08-01T13:02:35.861Z,2.22
2022-08-01T13:07:45.680Z,3.00
2022-08-01T13:12:54.601Z,2.38
2022-08-01T13:18:00.747Z,2.60
2022-08-01T13:23:15.349Z,3.05
2022-08-01T13:28:39.496Z,3.20
2022-08-01T13:33:45.932Z,2.65
2022-08-01T13:39:15.242Z,2.55
2022-08-01T13:44:19.047Z,2.40
2022-08-01T13:49:23.860Z,2.85
2022-08-01T13:54:27.466Z,3.20
2022-08-01T13:59:30.828Z,2.80
2022-08-01T14:04:35.504Z,3.67
2022-08-01T14:09:45.102Z,3.78
2022-08-01T14:15:02.773Z,4.30
2022-08-01T14:20:08.438Z,2.85
2022-08-01T14:25:11.746Z,3.30
2022-08-01T14:30:27.510Z,4.00
2022-08-01T14:35:46.434Z,3.05
2022-08-01T14:40:56.170Z,3.17
2022-08-01T14:45:59.657Z,3.50
2022-08-01T14:51:05.262Z,3.58
2022-08-01T14:56:09.245Z,4.13
2022-08-01T15:01:12.734Z,4.13
2022-08-01T15:06:17.483Z,3.67
2022-08-01T15:11:20.867Z,4.28
2022-08-01T15:16:25.481Z,5.05
2022-08-01T15:21:41.208Z,4.30
2022-08-01T15:26:45.458Z,4.60
2022-08-01T15:31:48.756Z,4.70
2022-08-01T15:36:54.079Z,4.50
2022-08-01T15:42:00.229Z,3.80
2022-08-01T15:47:05.195Z,3.33
2022-08-01T15:52:21.309Z,3.72
2022-08-01T15:57:25.050Z,4.22
2022-08-01T16:02:28.494Z,3.47
2022-08-01T16:07:33.198Z,3.85
2022-08-01T16:12:36.634Z,4.47
2022-08-01T16:17:44.485Z,8.52
2022-08-01T16:22:49.531Z,5.20
2022-08-01T16:27:52.968Z,3.88
2022-08-01T16:32:59.505Z,3.92
2022-08-01T16:38:13.840Z,4.55
2022-08-01T16:43:18.321Z,4.82
2022-08-01T16:48:21.700Z,4.60
2022-08-01T16:53:26.426Z,4.45
2022-08-01T16:58:29.914Z,4.35
2022-08-01T17:03:52.555Z,3.75
2022-08-01T17:08:58.998Z,3.70
2022-08-01T17:14:02.528Z,3.65
2022-08-01T17:19:06.298Z,4.15
2022-08-01T17:24:11.606Z,5.38
2022-08-01T17:29:19.887Z,5.68
2022-08-01T17:34:23.277Z,13.00
2022-08-01T17:39:38.434Z,34.78
2022-08-01T17:44:48.849Z,7.70
2022-08-01T17:49:55.218Z,53.47
2022-08-01T17:55:00.955Z,36.05
2022-08-01T18:00:05.995Z,67.05
2022-08-01T18:05:11.366Z,10.25
2022-08-01T18:10:20.535Z,9.30
2022-08-01T18:15:26.877Z,12.02
2022-08-01T18:20:30.687Z,5.65
2022-08-01T18:25:35.391Z,5.63
2022-08-01T18:30:38.730Z,10.52
2022-08-01T18:35:53.714Z,8.43
2022-08-01T18:40:59.001Z,7.10
2022-08-01T18:46:04.223Z,6.60
2022-08-01T18:51:09.299Z,6.93
2022-08-01T18:56:16.368Z,7.10
2022-08-01T19:01:19.856Z,6.85
2022-08-01T19:06:24.808Z,6.80
2022-08-01T19:11:29.505Z,7.05
2022-08-01T19:16:33.099Z,6.82
2022-08-01T19:21:39.310Z,7.22
2022-08-01T19:26:50.535Z,7.18
2022-08-01T19:31:54.831Z,7.03
2022-08-01T19:36:59.108Z,7.43
2022-08-01T19:42:04.290Z,8.85
2022-08-01T19:47:07.915Z,8.32
2022-08-01T19:52:12.176Z,10.45
2022-08-01T19:57:17.377Z,11.52
2022-08-01T20:02:21.051Z,13.13
2022-08-01T20:07:24.449Z,11.45
2022-08-01T20:12:29.540Z,11.55
2022-08-01T20:17:32.865Z,11.85
2022-08-01T20:22:37.287Z,9.70
2022-08-01T20:27:45.534Z,8.93
2022-08-01T20:32:49.833Z,8.90
2022-08-01T20:38:05.620Z,8.23
2022-08-01T20:43:13.903Z,7.32
2022-08-01T20:48:17.945Z,7.50
2022-08-01T20:53:22.275Z,8.60
2022-08-01T20:58:32.012Z,5.22
2022-08-01T21:03:43.989Z,4.70
2022-08-01T21:08:50.050Z,4.40
2022-08-01T21:13:56.869Z,4.85
2022-08-01T21:19:20.877Z,4.40
2022-08-01T21:24:26.974Z,4.43
2022-08-01T21:29:34.158Z,4.93
2022-08-01T21:34:39.392Z,5.88
2022-08-01T21:39:45.807Z,6.65
2022-08-01T21:44:50.523Z,7.32
2022-08-01T21:49:54.176Z,7.47
2022-08-01T21:55:02.712Z,9.98
2022-08-01T22:00:21.421Z,7.85
2022-08-01T22:05:40.544Z,7.28
2022-08-01T22:10:59.919Z,6.60
2022-08-01T22:16:06.839Z,7.45
2022-08-01T22:21:10.913Z,6.18
2022-08-01T22:26:14.482Z,8.13
2022-08-01T22:31:19.971Z,8.02
2022-08-01T22:36:23.434Z,7.47
2022-08-01T22:42:01.556Z,7.70
2022-08-01T22:47:02.550Z,9.50
2022-08-01T22:52:13.036Z,9.10
2022-08-01T22:57:21.825Z,10.15
2022-08-01T23:02:29.084Z,9.48
2022-08-01T23:07:34.994Z,9.23
2022-08-01T23:12:40.111Z,11.23
2022-08-01T23:17:45.078Z,13.38
2022-08-01T23:22:50.301Z,12.30
2022-08-01T23:28:05.566Z,11.82
2022-08-01T23:33:10.753Z,11.60
2022-08-01T23:38:20.335Z,13.43
2022-08-01T23:43:24.310Z,12.70
2022-08-01T23:48:29.831Z,15.05
2022-08-01T23:53:33.783Z,16.27
2022-08-01T23:58:39.549Z,13.40
